Time;durP1;ratioP1;P1;durP2;ratioP2;P2;SDS_P1;SDS_P2;PMS_P1;PMS_P2;Temp;Humidity;BMP_temperature;BMP_pressure;BME280_temperature;BME280_humidity;BME280_pressure;Samples;Min_cycle;Max_cycle;Signal;HPM_P1;HPM_P2
2023/09/29 00:00:14;;;;;;;3.63;2.22;;;;;;;;;;5018167;28;20308;-66
2023/09/29 00:02:44;;;;;;;2.20;2.00;;;;;;;;;;5019072;28;20207;-67
2023/09/29 00:05:17;;;;;;;3.65;2.50;;;;;;;;;;5015089;28;20221;-66
2023/09/29 00:07:44;;;;;;;2.53;2.08;;;;;;;;;;5019511;28;20200;-66
2023/09/29 00:10:13;;;;;;;2.97;2.30;;;;;;;;;;5033937;28;20214;-67
2023/09/29 00:12:41;;;;;;;2.60;2.40;;;;;;;;;;5021913;28;20208;-67
2023/09/29 00:15:09;;;;;;;3.42;2.38;;;;;;;;;;5016842;28;20212;-67
2023/09/29 00:17:37;;;;;;;2.47;2.28;;;;;;;;;;5022223;28;20204;-67
2023/09/29 00:20:12;;;;;;;2.50;1.98;;;;;;;;;;5021134;28;20204;-66
2023/09/29 00:22:39;;;;;;;3.78;2.20;;;;;;;;;;5022157;28;20208;-67
2023/09/29 00:25:07;;;;;;;2.40;2.20;;;;;;;;;;5021702;28;20224;-66
2023/09/29 00:27:34;;;;;;;4.10;2.03;;;;;;;;;;5021152;28;20262;-67
2023/09/29 00:30:04;;;;;;;3.28;2.35;;;;;;;;;;5025802;28;20205;-66
2023/09/29 00:32:31;;;;;;;4.63;2.17;;;;;;;;;;5024082;28;20220;-66
2023/09/29 00:34:59;;;;;;;3.38;2.42;;;;;;;;;;5021137;28;20247;-67
2023/09/29 00:37:28;;;;;;;3.08;2.22;;;;;;;;;;5026280;28;20200;-67
2023/09/29 00:39:56;;;;;;;3.95;2.50;;;;;;;;;;5022537;28;20208;-66
2023/09/29 00:42:23;;;;;;;3.35;2.40;;;;;;;;;;5020259;28;20203;-67
2023/09/29 00:44:50;;;;;;;4.78;2.63;;;;;;;;;;5022384;28;20240;-66
2023/09/29 00:47:20;;;;;;;4.93;3.08;;;;;;;;;;5023532;28;20255;-67
2023/09/29 00:49:48;;;;;;;3.45;2.67;;;;;;;;;;5024145;28;20262;-67
2023/09/29 00:52:16;;;;;;;3.38;2.70;;;;;;;;;;5020816;28;20371;-67
2023/09/29 00:54:47;;;;;;;2.78;2.58;;;;;;;;;;5019273;28;20200;-67
2023/09/29 00:57:14;;;;;;;3.80;2.35;;;;;;;;;;5021424;28;20207;-67
2023/09/29 00:59:41;;;;;;;3.15;2.28;;;;;;;;;;5021807;28;20211;-67
2023/09/29 01:02:10;;;;;;;3.20;2.20;;;;;;;;;;5021065;28;20236;-67
2023/09/29 01:04:38;;;;;;;3.05;2.40;;;;;;;;;;5018425;28;20215;-67
2023/09/29 01:07:06;;;;;;;3.55;2.53;;;;;;;;;;5021135;28;20284;-66
2023/09/29 01:09:33;;;;;;;2.80;2.45;;;;;;;;;;5022314;28;20213;-67
2023/09/29 01:12:04;;;;;;;2.75;2.28;;;;;;;;;;5021276;28;20211;-67
2023/09/29 01:14:31;;;;;;;2.40;2.20;;;;;;;;;;5023721;28;20262;-66
2023/09/29 01:16:58;;;;;;;2.50;2.30;;;;;;;;;;5024114;28;20209;-73
2023/09/29 01:19:26;;;;;;;2.33;2.13;;;;;;;;;;5024271;28;20219;-73
2023/09/29 01:21:53;;;;;;;3.58;2.50;;;;;;;;;;5023774;28;20216;-73
2023/09/29 01:24:22;;;;;;;3.42;2.40;;;;;;;;;;5022781;28;20209;-74
2023/09/29 01:26:49;;;;;;;4.10;2.35;;;;;;;;;;5025091;28;20240;-73
2023/09/29 01:29:16;;;;;;;2.72;2.17;;;;;;;;;;5020934;28;20212;-73
2023/09/29 01:31:44;;;;;;;3.03;2.20;;;;;;;;;;5024453;28;20212;-72
2023/09/29 01:34:12;;;;;;;2.78;2.22;;;;;;;;;;5020181;28;20283;-73
2023/09/29 01:36:40;;;;;;;3.75;2.35;;;;;;;;;;5018524;28;20204;-73
2023/09/29 01:39:08;;;;;;;3.20;2.30;;;;;;;;;;5017173;28;20205;-72
2023/09/29 01:41:36;;;;;;;3.47;2.30;;;;;;;;;;5018587;28;20544;-74
2023/09/29 01:44:05;;;;;;;3.00;2.00;;;;;;;;;;5020602;28;20228;-73
2023/09/29 01:46:33;;;;;;;2.47;2.10;;;;;;;;;;5019466;28;20224;-73
2023/09/29 01:49:00;;;;;;;2.42;2.10;;;;;;;;;;5021003;28;20214;-72
2023/09/29 01:51:29;;;;;;;3.45;2.00;;;;;;;;;;5020570;28;20201;-74
2023/09/29 01:53:57;;;;;;;2.58;2.10;;;;;;;;;;5016277;28;20296;-74
2023/09/29 01:56:24;;;;;;;2.22;2.03;;;;;;;;;;5025216;28;20212;-74
2023/09/29 01:58:53;;;;;;;2.05;1.90;;;;;;;;;;5024585;28;20200;-75
2023/09/29 02:01:20;;;;;;;3.45;2.10;;;;;;;;;;5021898;28;20218;-74
2023/09/29 02:03:49;;;;;;;2.60;2.28;;;;;;;;;;5019893;28;20200;-73
2023/09/29 02:06:17;;;;;;;1.83;1.70;;;;;;;;;;5021574;28;20221;-74
2023/09/29 02:08:44;;;;;;;4.60;2.30;;;;;;;;;;5018701;28;20211;-73
2023/09/29 02:11:12;;;;;;;2.53;2.30;;;;;;;;;;5019977;28;20215;-74
2023/09/29 02:13:39;;;;;;;2.75;2.13;;;;;;;;;;5024281;28;20208;-73
2023/09/29 02:16:12;;;;;;;2.45;2.25;;;;;;;;;;5021208;28;20205;-73
2023/09/29 02:18:39;;;;;;;3.17;2.30;;;;;;;;;;5018515;28;20304;-74
2023/09/29 02:21:07;;;;;;;3.25;2.05;;;;;;;;;;5025013;28;20512;-74
2023/09/29 02:23:35;;;;;;;3.72;1.95;;;;;;;;;;5027192;28;20208;-72
2023/09/29 02:26:02;;;;;;;2.30;2.10;;;;;;;;;;5019351;28;20291;-72
2023/09/29 02:28:30;;;;;;;3.25;2.20;;;;;;;;;;5017044;28;20209;-73
2023/09/29 02:30:58;;;;;;;2.75;2.53;;;;;;;;;;5021860;28;20208;-74
2023/09/29 02:33:28;;;;;;;3.78;2.30;;;;;;;;;;5023820;28;20212;-74
2023/09/29 02:35:56;;;;;;;3.13;1.80;;;;;;;;;;5020670;28;20208;-74
2023/09/29 02:38:23;;;;;;;2.30;2.10;;;;;;;;;;5021748;28;20266;-73
2023/09/29 02:40:50;;;;;;;4.60;2.38;;;;;;;;;;5021066;28;20211;-74
2023/09/29 02:43:18;;;;;;;4.63;2.67;;;;;;;;;;5024526;28;20192;-74
2023/09/29 02:45:46;;;;;;;3.30;2.28;;;;;;;;;;5022778;28;20220;-74
2023/09/29 02:48:13;;;;;;;2.80;2.60;;;;;;;;;;5020057;28;20221;-74
2023/09/29 02:50:41;;;;;;;2.38;2.15;;;;;;;;;;5018012;28;20219;-74
2023/09/29 02:53:08;;;;;;;2.75;2.28;;;;;;;;;;5023125;28;20205;-74
2023/09/29 02:55:37;;;;;;;5.03;2.72;;;;;;;;;;5024761;28;20205;-74
2023/09/29 02:58:04;;;;;;;4.57;2.55;;;;;;;;;;5026231;28;20254;-74
2023/09/29 03:00:31;;;;;;;3.47;2.60;;;;;;;;;;5017450;28;20240;-74
2023/09/29 03:02:59;;;;;;;2.65;2.45;;;;;;;;;;5021268;28;20217;-74
2023/09/29 03:05:26;;;;;;;4.03;2.45;;;;;;;;;;5020053;28;20217;-74
2023/09/29 03:07:56;;;;;;;3.30;2.50;;;;;;;;;;5017246;28;20213;-74
2023/09/29 03:10:25;;;;;;;3.08;2.58;;;;;;;;;;5022114;28;20211;-74
2023/09/29 03:12:56;;;;;;;3.00;2.67;;;;;;;;;;5016699;28;20200;-74
2023/09/29 03:15:23;;;;;;;2.50;2.30;;;;;;;;;;5017797;28;20231;-73
2023/09/29 03:17:51;;;;;;;3.38;2.70;;;;;;;;;;5015816;28;20201;-74
2023/09/29 03:20:18;;;;;;;4.88;2.70;;;;;;;;;;5017040;28;20197;-72
2023/09/29 03:22:46;;;;;;;3.97;2.42;;;;;;;;;;5018667;28;20207;-74
2023/09/29 03:25:16;;;;;;;3.42;2.40;;;;;;;;;;5020457;28;20221;-74
2023/09/29 03:27:43;;;;;;;5.07;2.60;;;;;;;;;;5018405;28;20228;-74
2023/09/29 03:30:11;;;;;;;4.03;2.90;;;;;;;;;;5022186;28;20210;-73
2023/09/29 03:32:38;;;;;;;3.10;2.75;;;;;;;;;;5017221;28;20200;-73
2023/09/29 03:35:06;;;;;;;4.50;3.10;;;;;;;;;;5019004;28;20209;-74
2023/09/29 03:37:36;;;;;;;3.10;2.80;;;;;;;;;;5019579;28;20239;-67
2023/09/29 03:40:07;;;;;;;4.32;2.88;;;;;;;;;;5026543;28;20239;-67
2023/09/29 03:42:36;;;;;;;4.82;3.08;;;;;;;;;;5018528;28;20200;-66
2023/09/29 03:45:05;;;;;;;3.35;2.88;;;;;;;;;;5019552;28;20211;-66
2023/09/29 03:47:33;;;;;;;2.92;2.70;;;;;;;;;;5021930;28;20291;-67
2023/09/29 03:50:00;;;;;;;4.18;2.70;;;;;;;;;;5021759;28;20212;-67
2023/09/29 03:52:29;;;;;;;3.63;3.00;;;;;;;;;;5015818;28;20394;-66
2023/09/29 03:54:56;;;;;;;3.33;3.03;;;;;;;;;;5017356;28;20200;-67
2023/09/29 03:57:23;;;;;;;2.70;2.50;;;;;;;;;;5025263;28;20204;-67
2023/09/29 03:59:52;;;;;;;5.10;2.90;;;;;;;;;;5017426;28;20198;-67
2023/09/29 04:02:20;;;;;;;3.00;2.70;;;;;;;;;;5018716;28;20259;-67
2023/09/29 04:04:48;;;;;;;4.47;2.97;;;;;;;;;;5019036;28;20247;-66
2023/09/29 04:07:15;;;;;;;4.05;2.80;;;;;;;;;;5021090;28;20220;-67
2023/09/29 04:09:42;;;;;;;3.00;2.80;;;;;;;;;;5022657;28;20212;-66
2023/09/29 04:12:10;;;;;;;3.40;2.60;;;;;;;;;;5013063;28;20208;-66
2023/09/29 04:14:37;;;;;;;4.18;2.85;;;;;;;;;;5021514;28;20209;-67
2023/09/29 04:17:05;;;;;;;3.88;3.13;;;;;;;;;;5023335;28;20235;-67
2023/09/29 04:19:35;;;;;;;3.00;2.80;;;;;;;;;;5016853;28;20205;-67
2023/09/29 04:22:02;;;;;;;3.85;2.80;;;;;;;;;;5020096;28;20214;-67
2023/09/29 04:24:29;;;;;;;3.50;2.78;;;;;;;;;;5022706;28;20197;-67
2023/09/29 04:26:56;;;;;;;3.60;3.00;;;;;;;;;;5019570;28;20231;-68
2023/09/29 04:29:23;;;;;;;2.90;2.70;;;;;;;;;;5020023;28;20215;-66
2023/09/29 04:31:50;;;;;;;2.97;2.65;;;;;;;;;;5018115;28;20223;-66
2023/09/29 04:34:19;;;;;;;5.32;3.40;;;;;;;;;;5018513;28;20215;-66
2023/09/29 04:36:46;;;;;;;4.18;3.17;;;;;;;;;;5017133;28;20189;-66
2023/09/29 04:39:13;;;;;;;3.30;3.00;;;;;;;;;;5015332;28;20205;-67
2023/09/29 04:41:40;;;;;;;6.00;3.30;;;;;;;;;;5022850;28;20212;-67
2023/09/29 04:44:07;;;;;;;4.78;2.83;;;;;;;;;;5015155;28;20307;-67
2023/09/29 04:46:35;;;;;;;4.30;3.10;;;;;;;;;;5016674;28;20228;-74
2023/09/29 04:49:03;;;;;;;4.03;3.10;;;;;;;;;;5018504;28;20208;-74
2023/09/29 04:51:33;;;;;;;3.40;3.00;;;;;;;;;;5018689;28;20262;-74
2023/09/29 04:54:00;;;;;;;4.88;3.00;;;;;;;;;;5011896;28;20215;-72
2023/09/29 04:56:27;;;;;;;3.53;3.22;;;;;;;;;;5015791;28;20196;-73
2023/09/29 04:58:54;;;;;;;4.45;2.92;;;;;;;;;;5019428;28;20215;-74
2023/09/29 05:01:23;;;;;;;4.05;3.08;;;;;;;;;;5015712;28;20201;-74
2023/09/29 05:03:51;;;;;;;4.05;3.22;;;;;;;;;;5019626;28;20212;-73
2023/09/29 05:06:19;;;;;;;4.55;3.47;;;;;;;;;;5022249;28;20246;-74
2023/09/29 05:08:47;;;;;;;3.65;3.10;;;;;;;;;;5026599;28;20204;-73
2023/09/29 05:11:21;;;;;;;3.78;3.47;;;;;;;;;;5020547;28;20204;-73
2023/09/29 05:13:48;;;;;;;3.55;3.17;;;;;;;;;;5026097;28;20226;-73
2023/09/29 05:16:15;;;;;;;4.22;3.30;;;;;;;;;;5013703;28;20211;-74
2023/09/29 05:18:42;;;;;;;4.18;3.13;;;;;;;;;;5018893;28;20422;-74
2023/09/29 05:21:09;;;;;;;3.33;3.00;;;;;;;;;;5023595;28;20304;-74
2023/09/29 05:23:37;;;;;;;4.28;3.10;;;;;;;;;;5023063;28;20239;-74
2023/09/29 05:26:07;;;;;;;4.40;3.28;;;;;;;;;;5019578;28;20236;-74
2023/09/29 05:28:34;;;;;;;5.03;3.90;;;;;;;;;;5020634;28;20200;-74
2023/09/29 05:31:02;;;;;;;7.22;4.28;;;;;;;;;;5019772;28;20320;-74
2023/09/29 05:33:29;;;;;;;5.28;3.78;;;;;;;;;;5014899;28;20211;-72
2023/09/29 05:35:56;;;;;;;7.43;3.80;;;;;;;;;;5020006;28;20200;-73
2023/09/29 05:38:23;;;;;;;4.40;3.58;;;;;;;;;;5024273;28;20212;-74
2023/09/29 05:40:51;;;;;;;7.90;3.85;;;;;;;;;;5023659;28;20287;-74
2023/09/29 05:43:19;;;;;;;4.07;3.38;;;;;;;;;;5020330;28;20208;-73
2023/09/29 05:45:47;;;;;;;8.30;3.78;;;;;;;;;;5014951;28;20197;-73
2023/09/29 05:48:14;;;;;;;7.75;3.92;;;;;;;;;;5014802;28;20216;-73
2023/09/29 05:50:41;;;;;;;4.90;3.40;;;;;;;;;;5013461;28;20216;-72
2023/09/29 05:53:08;;;;;;;4.05;3.35;;;;;;;;;;5019563;28;20213;-74
2023/09/29 05:55:36;;;;;;;4.57;3.45;;;;;;;;;;5022862;28;20621;-74
2023/09/29 05:58:03;;;;;;;5.13;3.20;;;;;;;;;;5018041;28;20204;-75
2023/09/29 06:00:33;;;;;;;3.22;2.92;;;;;;;;;;5017001;28;20213;-74
2023/09/29 06:03:00;;;;;;;9.07;3.78;;;;;;;;;;5018113;28;20284;-73
2023/09/29 06:05:28;;;;;;;5.57;3.65;;;;;;;;;;5021154;28;20204;-74
2023/09/29 06:07:56;;;;;;;4.78;3.20;;;;;;;;;;5023012;28;20224;-74
2023/09/29 06:10:23;;;;;;;3.72;3.00;;;;;;;;;;5020426;28;20219;-74
2023/09/29 06:12:50;;;;;;;5.18;3.28;;;;;;;;;;5024054;28;20205;-73
2023/09/29 06:15:18;;;;;;;5.57;3.33;;;;;;;;;;5015161;28;20200;-73
2023/09/29 06:17:47;;;;;;;8.25;3.50;;;;;;;;;;5020193;28;20208;-74
2023/09/29 06:20:14;;;;;;;3.50;3.20;;;;;;;;;;5020570;28;20204;-74
2023/09/29 06:22:42;;;;;;;4.45;3.20;;;;;;;;;;5019269;28;20200;-74
2023/09/29 06:25:09;;;;;;;4.55;3.10;;;;;;;;;;5020880;28;20212;-74
2023/09/29 06:27:37;;;;;;;3.85;3.22;;;;;;;;;;5021172;28;20239;-73
2023/09/29 06:30:06;;;;;;;4.57;3.30;;;;;;;;;;5017190;28;20215;-74
2023/09/29 06:32:33;;;;;;;5.00;3.47;;;;;;;;;;5018402;28;20200;-74
2023/09/29 06:35:02;;;;;;;5.43;3.42;;;;;;;;;;5017737;28;20209;-74
2023/09/29 06:37:30;;;;;;;3.95;3.53;;;;;;;;;;5022649;28;20208;-72
2023/09/29 06:39:57;;;;;;;8.13;4.55;;;;;;;;;;5022520;28;20227;-73
2023/09/29 06:42:24;;;;;;;6.18;4.47;;;;;;;;;;5025569;28;20212;-74
2023/09/29 06:44:52;;;;;;;4.68;4.28;;;;;;;;;;5022549;28;20209;-74
2023/09/29 06:47:19;;;;;;;4.75;4.10;;;;;;;;;;5020975;28;20240;-74
2023/09/29 06:49:47;;;;;;;4.47;4.00;;;;;;;;;;5017001;28;20263;-73
2023/09/29 06:52:16;;;;;;;5.72;4.43;;;;;;;;;;5014893;28;20196;-73
2023/09/29 06:54:43;;;;;;;5.43;4.40;;;;;;;;;;5019027;28;20200;-74
2023/09/29 06:57:10;;;;;;;6.68;4.22;;;;;;;;;;5012430;28;20210;-73
2023/09/29 06:59:37;;;;;;;8.93;4.80;;;;;;;;;;5010813;28;20231;-73
2023/09/29 07:02:05;;;;;;;7.45;4.13;;;;;;;;;;5017222;28;20213;-73
2023/09/29 07:04:32;;;;;;;7.40;4.32;;;;;;;;;;5021975;28;20250;-74
2023/09/29 07:07:00;;;;;;;5.63;3.58;;;;;;;;;;5021127;28;20323;-66
2023/09/29 07:09:28;;;;;;;5.60;4.40;;;;;;;;;;5021185;28;20200;-67
2023/09/29 07:11:56;;;;;;;5.82;4.25;;;;;;;;;;5016477;28;20207;-67
2023/09/29 07:14:23;;;;;;;5.95;4.05;;;;;;;;;;5027120;28;20204;-66
2023/09/29 07:16:52;;;;;;;5.03;3.80;;;;;;;;;;5021459;28;20200;-66
2023/09/29 07:19:20;;;;;;;5.72;4.38;;;;;;;;;;5021508;28;20231;-67
2023/09/29 07:21:47;;;;;;;4.97;4.38;;;;;;;;;;5014261;28;20208;-67
2023/09/29 07:24:14;;;;;;;5.88;4.30;;;;;;;;;;5017076;28;20257;-66
2023/09/29 07:26:43;;;;;;;4.30;3.90;;;;;;;;;;5028336;28;20236;-66
2023/09/29 07:29:11;;;;;;;6.53;4.00;;;;;;;;;;5025210;28;20291;-66
2023/09/29 07:31:46;;;;;;;6.28;4.07;;;;;;;;;;5020217;28;20244;-66
2023/09/29 07:34:15;;;;;;;5.65;3.95;;;;;;;;;;5018786;28;20219;-66
2023/09/29 07:36:43;;;;;;;6.63;3.92;;;;;;;;;;5019646;28;20219;-66
2023/09/29 07:39:11;;;;;;;4.38;3.80;;;;;;;;;;5013947;28;20208;-66
2023/09/29 07:41:38;;;;;;;4.45;3.90;;;;;;;;;;5024875;28;20228;-67
2023/09/29 07:44:08;;;;;;;6.10;3.78;;;;;;;;;;5022968;28;20286;-66
2023/09/29 07:46:35;;;;;;;3.80;3.50;;;;;;;;;;5015529;28;20230;-66
2023/09/29 07:49:02;;;;;;;5.03;4.20;;;;;;;;;;5011101;28;20213;-66
2023/09/29 07:51:29;;;;;;;4.85;3.70;;;;;;;;;;5015466;28;20200;-65
2023/09/29 07:53:57;;;;;;;6.90;3.90;;;;;;;;;;5015456;28;20196;-65
2023/09/29 07:56:24;;;;;;;3.88;3.25;;;;;;;;;;5024724;28;20207;-66
2023/09/29 07:58:54;;;;;;;3.92;3.50;;;;;;;;;;5021741;28;20300;-65
2023/09/29 08:01:22;;;;;;;4.43;4.00;;;;;;;;;;5019106;28;20231;-66
2023/09/29 08:03:50;;;;;;;4.97;3.80;;;;;;;;;;5030316;28;20302;-66
2023/09/29 08:06:17;;;;;;;4.78;3.65;;;;;;;;;;5026945;28;20231;-66
2023/09/29 08:08:45;;;;;;;5.38;3.70;;;;;;;;;;5016356;28;20201;-66
2023/09/29 08:11:12;;;;;;;6.53;3.70;;;;;;;;;;5023358;28;20230;-65
2023/09/29 08:13:39;;;;;;;4.57;3.97;;;;;;;;;;5022834;28;20201;-65
2023/09/29 08:16:06;;;;;;;4.20;3.60;;;;;;;;;;5023971;28;20208;-65
2023/09/29 08:18:35;;;;;;;7.18;3.70;;;;;;;;;;5027076;28;20212;-66
2023/09/29 08:21:02;;;;;;;5.72;3.50;;;;;;;;;;5015491;28;20218;-65
2023/09/29 08:23:30;;;;;;;6.78;3.47;;;;;;;;;;5021131;28;20209;-65
2023/09/29 08:25:58;;;;;;;6.45;3.80;;;;;;;;;;5023775;28;20247;-69
2023/09/29 08:28:25;;;;;;;5.35;3.80;;;;;;;;;;5019597;28;20231;-65
2023/09/29 08:30:52;;;;;;;4.25;3.53;;;;;;;;;;5016877;28;20210;-67
2023/09/29 08:33:20;;;;;;;7.43;3.72;;;;;;;;;;5022153;28;20287;-65
2023/09/29 08:35:48;;;;;;;4.45;3.33;;;;;;;;;;5018284;28;20207;-65
2023/09/29 08:38:16;;;;;;;5.00;3.50;;;;;;;;;;5028807;28;20274;-65
2023/09/29 08:40:43;;;;;;;7.35;3.30;;;;;;;;;;5022173;28;20247;-65
2023/09/29 08:43:13;;;;;;;4.80;3.53;;;;;;;;;;5024114;28;20217;-65
2023/09/29 08:45:43;;;;;;;4.88;3.40;;;;;;;;;;5016760;28;20212;-65
2023/09/29 08:48:11;;;;;;;5.30;3.97;;;;;;;;;;5024817;28;20228;-65
2023/09/29 08:50:39;;;;;;;6.20;3.55;;;;;;;;;;5026382;28;20231;-65
2023/09/29 08:53:09;;;;;;;6.13;3.75;;;;;;;;;;5026470;28;20201;-65
2023/09/29 08:55:36;;;;;;;4.65;3.60;;;;;;;;;;5020481;28;20290;-65
2023/09/29 08:58:03;;;;;;;6.57;3.28;;;;;;;;;;5018081;28;20213;-64
2023/09/29 09:00:30;;;;;;;6.57;3.63;;;;;;;;;;5024237;28;20197;-64
2023/09/29 09:03:00;;;;;;;6.78;3.60;;;;;;;;;;5020682;28;20201;-64
2023/09/29 09:05:28;;;;;;;6.45;3.80;;;;;;;;;;5017911;28;20196;-64
2023/09/29 09:07:55;;;;;;;7.32;3.70;;;;;;;;;;5024652;28;20229;-66
2023/09/29 09:10:32;;;;;;;5.57;3.95;;;;;;;;;;5025998;28;20204;-65
2023/09/29 09:12:59;;;;;;;4.43;3.90;;;;;;;;;;5024449;28;20201;-65
2023/09/29 09:15:27;;;;;;;10.45;3.83;;;;;;;;;;5024970;28;20235;-64
2023/09/29 09:17:54;;;;;;;7.88;3.90;;;;;;;;;;5023626;28;20208;-65
2023/09/29 09:20:21;;;;;;;7.80;4.00;;;;;;;;;;5020692;28;20204;-66
2023/09/29 09:22:57;;;;;;;7.47;3.53;;;;;;;;;;5024404;28;20197;-66
2023/09/29 09:25:35;;;;;;;7.22;3.85;;;;;;;;;;5019996;28;20223;-71
2023/09/29 09:28:02;;;;;;;6.05;3.60;;;;;;;;;;5024804;28;20259;-71
2023/09/29 09:30:35;;;;;;;5.97;3.40;;;;;;;;;;5021695;28;20205;-71
2023/09/29 09:33:02;;;;;;;6.38;3.40;;;;;;;;;;5016275;28;20235;-71
2023/09/29 09:35:30;;;;;;;3.90;3.03;;;;;;;;;;5021800;28;20243;-71
2023/09/29 09:37:57;;;;;;;5.68;2.90;;;;;;;;;;5018780;28;20209;-69
2023/09/29 09:40:28;;;;;;;6.97;2.72;;;;;;;;;;5021712;28;20218;-71
2023/09/29 09:43:02;;;;;;;6.43;3.08;;;;;;;;;;5022479;28;20193;-71
2023/09/29 09:48:20;;;;;;;5.53;2.65;;;;;;;;;;5018468;28;20231;-71
2023/09/29 09:50:49;;;;;;;3.53;2.70;;;;;;;;;;5016859;28;20205;-71
2023/09/29 09:53:20;;;;;;;5.22;2.70;;;;;;;;;;5018651;28;20208;-70
2023/09/29 09:55:53;;;;;;;4.55;2.97;;;;;;;;;;5014935;28;21941;-71
2023/09/29 09:58:26;;;;;;;5.38;3.30;;;;;;;;;;5023699;28;20211;-72
2023/09/29 10:00:55;;;;;;;5.90;3.40;;;;;;;;;;5015677;28;20209;-71
2023/09/29 10:03:23;;;;;;;6.70;3.50;;;;;;;;;;5022350;28;20208;-71
2023/09/29 10:05:53;;;;;;;5.10;3.22;;;;;;;;;;5018971;28;20234;-71
2023/09/29 10:08:27;;;;;;;7.97;3.42;;;;;;;;;;5017700;28;20279;-72
2023/09/29 10:10:55;;;;;;;7.07;3.83;;;;;;;;;;5018222;28;20207;-71
2023/09/29 10:13:23;;;;;;;5.80;3.75;;;;;;;;;;5018340;28;20208;-72
2023/09/29 10:15:56;;;;;;;6.45;4.15;;;;;;;;;;5024392;28;20204;-70
2023/09/29 10:18:24;;;;;;;6.38;3.70;;;;;;;;;;5025732;28;20203;-71
2023/09/29 10:20:55;;;;;;;8.52;4.75;;;;;;;;;;5019678;28;20209;-71
2023/09/29 10:23:25;;;;;;;6.90;4.45;;;;;;;;;;5016650;28;20211;-72
2023/09/29 10:25:58;;;;;;;8.50;4.75;;;;;;;;;;5018658;28;20248;-70
2023/09/29 10:28:32;;;;;;;8.60;5.00;;;;;;;;;;5014994;28;20220;-71
2023/09/29 10:31:08;;;;;;;12.70;5.82;;;;;;;;;;5015075;28;20195;-71
2023/09/29 10:33:47;;;;;;;9.70;5.70;;;;;;;;;;5024706;28;20243;-71
2023/09/29 10:36:14;;;;;;;9.32;5.80;;;;;;;;;;5020426;28;20214;-72
2023/09/29 10:38:42;;;;;;;10.30;5.57;;;;;;;;;;5017803;28;20193;-72
2023/09/29 10:41:09;;;;;;;8.52;5.65;;;;;;;;;;5019982;28;20220;-71
2023/09/29 10:43:38;;;;;;;11.35;5.90;;;;;;;;;;5015686;28;20292;-72
2023/09/29 10:46:09;;;;;;;11.90;6.15;;;;;;;;;;5021111;28;20204;-72
2023/09/29 10:48:44;;;;;;;9.82;5.65;;;;;;;;;;5020774;28;20220;-71
2023/09/29 10:51:12;;;;;;;9.13;5.72;;;;;;;;;;5018248;28;20199;-72
2023/09/29 10:53:42;;;;;;;9.95;5.80;;;;;;;;;;5018589;28;20300;-72
2023/09/29 10:56:09;;;;;;;9.60;5.55;;;;;;;;;;5027594;28;20232;-71
2023/09/29 10:58:41;;;;;;;10.57;6.50;;;;;;;;;;5019786;28;20196;-72
2023/09/29 11:01:08;;;;;;;10.77;5.93;;;;;;;;;;5018291;28;20215;-72
2023/09/29 11:03:36;;;;;;;10.45;6.85;;;;;;;;;;5014936;28;20204;-71
2023/09/29 11:06:08;;;;;;;11.02;6.65;;;;;;;;;;5017735;28;20242;-72
2023/09/29 11:08:42;;;;;;;11.82;6.45;;;;;;;;;;5018376;28;20223;-71
2023/09/29 11:11:10;;;;;;;11.07;7.22;;;;;;;;;;5018318;28;20212;-71
2023/09/29 11:13:38;;;;;;;13.65;7.78;;;;;;;;;;5022335;28;20215;-71
2023/09/29 11:16:16;;;;;;;14.38;8.10;;;;;;;;;;5020053;28;20201;-72
2023/09/29 11:18:44;;;;;;;13.02;7.35;;;;;;;;;;5024618;28;20204;-72
2023/09/29 11:21:12;;;;;;;12.30;7.78;;;;;;;;;;5012446;28;20201;-72
2023/09/29 11:23:41;;;;;;;13.40;8.25;;;;;;;;;;5020132;28;20214;-71
2023/09/29 11:26:10;;;;;;;13.38;8.25;;;;;;;;;;5019839;28;20248;-70
2023/09/29 11:28:41;;;;;;;14.18;8.43;;;;;;;;;;5022457;28;20270;-72
2023/09/29 11:31:12;;;;;;;15.50;8.70;;;;;;;;;;5016994;28;20205;-70
2023/09/29 11:33:40;;;;;;;14.52;8.80;;;;;;;;;;5015242;28;20209;-70
2023/09/29 11:36:14;;;;;;;14.88;8.35;;;;;;;;;;5015494;28;20208;-71
2023/09/29 11:38:41;;;;;;;14.63;8.95;;;;;;;;;;5014949;28;20208;-71
2023/09/29 11:41:09;;;;;;;14.30;8.10;;;;;;;;;;5021807;28;20231;-72
2023/09/29 11:43:37;;;;;;;13.90;8.82;;;;;;;;;;5016989;28;20208;-71
2023/09/29 11:46:04;;;;;;;14.85;8.93;;;;;;;;;;5021595;28;20208;-71
2023/09/29 11:48:35;;;;;;;13.50;8.20;;;;;;;;;;5016215;28;20224;-71
2023/09/29 11:51:03;;;;;;;15.15;9.40;;;;;;;;;;5020252;28;20283;-72
2023/09/29 11:53:31;;;;;;;13.38;8.73;;;;;;;;;;5016452;28;20335;-72
2023/09/29 11:55:59;;;;;;;13.35;8.23;;;;;;;;;;5015419;28;20247;-72
2023/09/29 11:58:26;;;;;;;14.63;9.00;;;;;;;;;;5017247;28;20227;-71
2023/09/29 12:00:54;;;;;;;16.80;9.15;;;;;;;;;;5015923;28;20211;-70
2023/09/29 12:03:23;;;;;;;12.52;7.80;;;;;;;;;;5019450;28;20207;-70
2023/09/29 12:05:52;;;;;;;15.50;8.82;;;;;;;;;;5022203;28;20203;-71
2023/09/29 12:08:19;;;;;;;14.18;8.75;;;;;;;;;;5020280;28;20235;-71
2023/09/29 12:10:47;;;;;;;14.70;8.38;;;;;;;;;;5021590;28;20204;-72
2023/09/29 12:13:15;;;;;;;14.32;8.73;;;;;;;;;;5023258;28;20200;-71
2023/09/29 12:15:43;;;;;;;14.10;8.40;;;;;;;;;;5026515;28;20228;-71
2023/09/29 12:18:10;;;;;;;13.65;7.78;;;;;;;;;;5019593;28;20212;-72
2023/09/29 12:20:38;;;;;;;13.57;8.18;;;;;;;;;;5020291;28;20201;-71
2023/09/29 12:23:08;;;;;;;20.00;8.30;;;;;;;;;;5023559;28;20205;-71
2023/09/29 12:25:35;;;;;;;18.33;9.07;;;;;;;;;;5019027;28;20201;-71
2023/09/29 12:28:04;;;;;;;14.95;7.95;;;;;;;;;;5026947;28;20235;-71
2023/09/29 12:30:31;;;;;;;14.43;8.50;;;;;;;;;;5019402;28;20208;-71
2023/09/29 12:32:58;;;;;;;14.60;8.10;;;;;;;;;;5019640;28;20204;-70
2023/09/29 12:35:25;;;;;;;17.05;8.10;;;;;;;;;;5029930;28;20208;-68
2023/09/29 12:37:53;;;;;;;15.43;7.38;;;;;;;;;;5026057;28;20212;-70
2023/09/29 12:40:21;;;;;;;18.45;9.20;;;;;;;;;;5023803;28;20215;-72
2023/09/29 12:42:49;;;;;;;13.27;7.65;;;;;;;;;;5018364;28;20205;-72
2023/09/29 12:45:18;;;;;;;15.25;7.75;;;;;;;;;;5023279;28;20196;-69
2023/09/29 12:47:46;;;;;;;14.95;7.93;;;;;;;;;;5017606;28;20212;-71
2023/09/29 12:50:14;;;;;;;19.98;8.32;;;;;;;;;;5022656;28;20208;-71
2023/09/29 12:52:41;;;;;;;20.55;8.80;;;;;;;;;;5025723;28;20209;-70
2023/09/29 12:55:11;;;;;;;12.50;8.05;;;;;;;;;;5023627;28;20240;-70
2023/09/29 12:57:40;;;;;;;16.33;8.23;;;;;;;;;;5022604;28;20208;-64
2023/09/29 13:00:09;;;;;;;14.30;7.85;;;;;;;;;;5020647;28;20213;-64
2023/09/29 13:02:36;;;;;;;13.55;7.90;;;;;;;;;;5023274;28;20208;-64
2023/09/29 13:05:05;;;;;;;13.18;7.55;;;;;;;;;;5023599;28;20219;-65
2023/09/29 13:07:34;;;;;;;13.85;7.70;;;;;;;;;;5023433;28;20215;-65
2023/09/29 13:10:01;;;;;;;12.98;7.93;;;;;;;;;;5024072;28;20216;-64
2023/09/29 13:12:28;;;;;;;14.68;7.85;;;;;;;;;;5020995;28;20208;-65
2023/09/29 13:14:57;;;;;;;14.02;8.05;;;;;;;;;;5025048;28;20209;-64
2023/09/29 13:17:25;;;;;;;12.23;7.45;;;;;;;;;;5021544;28;20219;-65
2023/09/29 13:19:52;;;;;;;16.55;8.02;;;;;;;;;;5024635;28;20285;-65
2023/09/29 13:22:19;;;;;;;16.85;8.38;;;;;;;;;;5026726;28;20193;-64
2023/09/29 13:24:47;;;;;;;14.35;7.45;;;;;;;;;;5017032;28;20220;-65
2023/09/29 13:27:15;;;;;;;17.77;8.40;;;;;;;;;;5026410;28;20239;-64
2023/09/29 13:29:42;;;;;;;14.63;7.60;;;;;;;;;;5023903;28;20220;-65
2023/09/29 13:32:11;;;;;;;14.32;7.80;;;;;;;;;;5022565;28;20300;-64
2023/09/29 13:34:39;;;;;;;15.90;8.30;;;;;;;;;;5020602;28;20201;-63
2023/09/29 13:37:06;;;;;;;15.52;7.20;;;;;;;;;;5019810;28;20204;-64
2023/09/29 13:39:34;;;;;;;14.32;7.78;;;;;;;;;;5023392;28;20281;-64
2023/09/29 13:42:04;;;;;;;15.85;7.70;;;;;;;;;;5021705;28;20219;-63
2023/09/29 13:44:32;;;;;;;14.05;7.78;;;;;;;;;;5022259;28;20200;-64
2023/09/29 13:46:59;;;;;;;14.57;7.32;;;;;;;;;;5028678;28;20231;-63
2023/09/29 13:49:28;;;;;;;15.10;7.05;;;;;;;;;;5022206;28;20220;-64
2023/09/29 13:51:55;;;;;;;13.27;7.07;;;;;;;;;;5019254;28;20200;-64
2023/09/29 13:54:23;;;;;;;15.98;7.57;;;;;;;;;;5019158;28;20212;-64
2023/09/29 13:56:50;;;;;;;14.77;6.70;;;;;;;;;;5018669;28;20208;-65
2023/09/29 13:59:17;;;;;;;12.20;6.30;;;;;;;;;;5023203;28;20200;-65
2023/09/29 14:01:44;;;;;;;11.98;6.07;;;;;;;;;;5025774;28;20215;-65
2023/09/29 14:04:12;;;;;;;12.98;6.35;;;;;;;;;;5023339;28;20216;-65
2023/09/29 14:06:41;;;;;;;9.68;5.95;;;;;;;;;;5022771;28;20280;-65
2023/09/29 14:09:12;;;;;;;11.68;5.95;;;;;;;;;;5019929;28;20236;-64
2023/09/29 14:11:39;;;;;;;11.07;6.22;;;;;;;;;;5017098;28;20287;-63
2023/09/29 14:14:07;;;;;;;11.38;5.57;;;;;;;;;;5025256;28;20204;-64
2023/09/29 14:16:34;;;;;;;11.50;5.55;;;;;;;;;;5022151;28;20212;-64
2023/09/29 14:19:01;;;;;;;12.30;6.03;;;;;;;;;;5018874;28;20208;-65
2023/09/29 14:21:29;;;;;;;12.98;5.97;;;;;;;;;;5026738;28;20208;-64
2023/09/29 14:23:59;;;;;;;12.50;5.75;;;;;;;;;;5022209;28;20204;-64
2023/09/29 14:26:26;;;;;;;9.43;5.35;;;;;;;;;;5024223;28;20232;-64
2023/09/29 14:28:55;;;;;;;10.57;4.72;;;;;;;;;;5023965;28;20209;-65
2023/09/29 14:31:22;;;;;;;8.10;4.75;;;;;;;;;;5019647;28;20212;-65
2023/09/29 14:33:50;;;;;;;7.18;4.05;;;;;;;;;;5020577;28;20208;-65
2023/09/29 14:36:17;;;;;;;7.35;3.95;;;;;;;;;;5021110;28;20215;-64
2023/09/29 14:38:44;;;;;;;8.35;3.38;;;;;;;;;;5020733;28;20197;-64
2023/09/29 14:41:13;;;;;;;6.60;3.03;;;;;;;;;;5021179;28;20203;-63
2023/09/29 14:43:42;;;;;;;5.13;2.50;;;;;;;;;;5021631;28;20215;-64
2023/09/29 14:46:13;;;;;;;5.30;2.70;;;;;;;;;;5022044;28;20238;-64
2023/09/29 14:48:40;;;;;;;5.72;3.20;;;;;;;;;;5019101;28;20231;-64